Time;durP1;ratioP1;P1;durP2;ratioP2;P2;SDS_P1;SDS_P2;PMS_P1;PMS_P2;Temp;Humidity;BMP_temperature;BMP_pressure;BME280_temperature;BME280_humidity;BME280_pressure;Samples;Min_cycle;Max_cycle;Signal;HPM_P1;HPM_P2
2024/02/17 00:04:17;;;;;;;10.27;7.07;;;;;;;14.43;100.00;101629.09;10456038;28;20179;-77
2024/02/17 00:09:40;;;;;;;9.07;7.50;;;;;;;14.56;100.00;101634.59;10469461;28;20072;-77
2024/02/17 00:15:05;;;;;;;10.15;7.22;;;;;;;14.55;100.00;101630.16;10454000;28;20064;-77
2024/02/17 00:20:28;;;;;;;12.45;8.02;;;;;;;14.46;100.00;101632.69;10447018;28;20137;-77
2024/02/17 00:25:51;;;;;;;9.13;7.65;;;;;;;14.53;100.00;101644.28;10482310;28;20131;-77
2024/02/17 00:31:15;;;;;;;10.50;7.95;;;;;;;14.54;100.00;101646.06;10468510;28;20136;-78
2024/02/17 00:36:37;;;;;;;9.68;7.45;;;;;;;14.52;100.00;101640.72;10481337;28;20107;-78
2024/02/17 00:42:00;;;;;;;10.80;7.82;;;;;;;14.46;100.00;101634.44;10438277;28;20040;-77
2024/02/17 00:47:24;;;;;;;11.30;7.60;;;;;;;14.53;100.00;101639.88;10466937;28;20056;-76
2024/02/17 00:52:47;;;;;;;12.65;8.48;;;;;;;14.47;100.00;101630.91;10453466;28;20445;-77
2024/02/17 00:58:09;;;;;;;10.63;8.23;;;;;;;14.48;100.00;101630.94;10466684;28;20548;-77
2024/02/17 01:03:34;;;;;;;8.75;7.25;;;;;;;14.49;100.00;101627.44;10453571;28;20045;-77
2024/02/17 01:08:56;;;;;;;16.02;10.07;;;;;;;14.49;100.00;101630.09;10452710;28;20064;-77
2024/02/17 01:14:20;;;;;;;10.27;7.93;;;;;;;14.56;100.00;101631.06;10480616;28;20478;-78
2024/02/17 01:19:44;;;;;;;15.50;8.10;;;;;;;14.59;100.00;101629.31;10465935;28;20057;-77
2024/02/17 01:25:07;;;;;;;13.18;7.88;;;;;;;14.58;100.00;101624.88;10452527;28;20569;-77
2024/02/17 01:30:30;;;;;;;10.57;7.72;;;;;;;14.52;100.00;101624.78;10438470;28;20048;-78
2024/02/17 01:35:54;;;;;;;10.48;7.63;;;;;;;14.44;100.00;101629.09;10479188;28;20068;-77
2024/02/17 01:41:17;;;;;;;21.55;9.20;;;;;;;14.53;100.00;101625.69;10435789;28;20135;-77
2024/02/17 01:46:40;;;;;;;15.57;9.52;;;;;;;14.52;100.00;101624.78;10437480;28;20049;-77
2024/02/17 01:52:05;;;;;;;13.45;8.80;;;;;;;14.54;100.00;101619.50;10426834;28;20045;-77
2024/02/17 01:57:29;;;;;;;11.95;9.13;;;;;;;14.49;100.00;101613.25;10438631;28;20063;-77
2024/02/17 02:02:53;;;;;;;14.43;9.93;;;;;;;14.54;100.00;101622.16;10479084;28;20056;-77
2024/02/17 02:08:17;;;;;;;17.08;10.05;;;;;;;14.48;100.00;101612.34;10450242;28;20111;-77
2024/02/17 02:13:40;;;;;;;15.48;10.40;;;;;;;14.56;100.00;101616.00;10462977;28;20048;-77
2024/02/17 02:19:03;;;;;;;12.80;8.48;;;;;;;14.58;100.00;101619.56;10417842;28;20053;-76
2024/02/17 02:24:27;;;;;;;14.95;7.28;;;;;;;14.53;100.00;101621.28;10436114;28;20099;-77
2024/02/17 02:29:52;;;;;;;12.65;7.60;;;;;;;14.54;100.00;101620.41;10449566;28;20629;-77
2024/02/17 02:35:15;;;;;;;14.18;7.47;;;;;;;14.56;100.00;101625.75;10435397;28;20130;-77
2024/02/17 02:40:37;;;;;;;10.57;6.97;;;;;;;14.53;100.00;101631.00;10463333;28;20049;-77
2024/02/17 02:46:01;;;;;;;10.60;6.07;;;;;;;14.54;100.00;101633.69;10461298;28;20049;-78
2024/02/17 02:51:24;;;;;;;12.10;6.32;;;;;;;14.56;100.00;101639.94;10449860;28;20382;-77
2024/02/17 02:56:46;;;;;;;10.23;5.57;;;;;;;14.45;100.00;101636.22;10448295;28;20551;-77
2024/02/17 03:02:10;;;;;;;9.35;6.40;;;;;;;14.44;100.00;101629.09;10435292;28;20053;-78
2024/02/17 03:07:33;;;;;;;8.82;6.45;;;;;;;14.36;100.00;101642.28;10448692;28;20049;-77
2024/02/17 03:12:56;;;;;;;15.48;7.72;;;;;;;14.34;100.00;101646.66;10447673;28;20414;-78
2024/02/17 03:18:20;;;;;;;11.45;7.00;;;;;;;14.38;100.00;101641.41;10447404;28;20088;-78
2024/02/17 03:23:43;;;;;;;15.63;6.97;;;;;;;14.29;100.00;101640.41;10447493;28;20075;-78
2024/02/17 03:29:05;;;;;;;9.15;6.53;;;;;;;14.19;100.00;101650.84;10434272;28;20053;-77
2024/02/17 03:34:29;;;;;;;9.70;6.72;;;;;;;14.08;100.00;101653.34;10461638;28;20056;-77
2024/02/17 03:39:52;;;;;;;8.02;6.00;;;;;;;14.14;100.00;101661.41;10448030;28;20513;-77
2024/02/17 03:45:15;;;;;;;10.10;6.05;;;;;;;14.16;100.00;101665.00;10431424;28;20040;-77
2024/02/17 03:50:39;;;;;;;10.00;5.82;;;;;;;14.14;100.00;101663.16;10447677;28;20128;-77
2024/02/17 03:56:01;;;;;;;10.88;6.18;;;;;;;14.12;100.00;101664.88;10446935;28;20130;-77
2024/02/17 04:01:26;;;;;;;11.27;6.30;;;;;;;14.14;100.00;101653.44;10446353;28;20073;-77
2024/02/17 04:06:50;;;;;;;16.67;10.20;;;;;;;14.26;100.00;101663.34;10447261;28;20049;-78
2024/02/17 04:12:13;;;;;;;9.50;5.10;;;;;;;14.35;100.00;101672.34;10474407;28;20049;-77
2024/02/17 04:17:35;;;;;;;13.48;6.28;;;;;;;14.36;100.00;101674.16;10443347;28;20056;-77
2024/02/17 04:23:00;;;;;;;9.85;6.00;;;;;;;14.36;100.00;101683.88;10474405;28;20051;-78
2024/02/17 04:28:22;;;;;;;11.27;6.65;;;;;;;14.37;100.00;101685.66;10461273;28;20041;-77
2024/02/17 04:33:45;;;;;;;8.90;5.72;;;;;;;14.44;100.00;101684.91;10446144;28;20049;-77
2024/02/17 04:39:11;;;;;;;12.60;6.30;;;;;;;14.36;100.00;101689.19;10453557;28;20051;-77
2024/02/17 04:44:33;;;;;;;11.13;6.70;;;;;;;14.39;100.00;101683.03;10451326;28;20052;-77
2024/02/17 04:49:56;;;;;;;14.98;8.63;;;;;;;14.44;100.00;101684.91;10432408;28;20041;-78
2024/02/17 04:55:20;;;;;;;12.00;6.63;;;;;;;14.38;100.00;101678.59;10453800;28;20045;-78
2024/02/17 05:00:42;;;;;;;10.93;6.68;;;;;;;14.48;100.00;101681.44;10454172;28;20106;-79
2024/02/17 05:06:05;;;;;;;17.30;7.80;;;;;;;14.51;100.00;101696.50;10453894;28;20052;-77
2024/02/17 05:11:30;;;;;;;13.10;7.50;;;;;;;14.54;100.00;101697.47;10453938;28;20521;-78
2024/02/17 05:16:52;;;;;;;11.43;7.43;;;;;;;14.53;100.00;101706.28;10438779;28;20052;-78
2024/02/17 05:22:15;;;;;;;14.90;8.10;;;;;;;14.62;100.00;101711.75;10465736;28;20736;-77
2024/02/17 05:27:40;;;;;;;16.23;8.73;;;;;;;14.65;100.00;101718.88;10466087;28;20053;-78
2024/02/17 05:33:03;;;;;;;11.63;7.15;;;;;;;14.64;100.00;101725.03;10445239;28;20053;-77
2024/02/17 05:38:26;;;;;;;13.40;7.13;;;;;;;14.70;100.00;101719.84;10454228;28;20049;-78
2024/02/17 05:43:50;;;;;;;13.93;6.65;;;;;;;14.73;100.00;101733.16;10474374;28;20143;-78
2024/02/17 05:49:12;;;;;;;9.70;6.40;;;;;;;14.76;100.00;101741.19;10463137;28;20487;-78
2024/02/17 05:54:35;;;;;;;10.95;6.57;;;;;;;14.78;100.00;101750.06;10437489;28;20045;-78
2024/02/17 05:59:59;;;;;;;10.85;6.07;;;;;;;14.65;100.00;101759.63;10465504;28;20098;-78
2024/02/17 06:05:21;;;;;;;24.50;11.32;;;;;;;14.44;100.00;101763.75;10465041;28;20052;-78
2024/02/17 06:10:44;;;;;;;8.50;6.63;;;;;;;14.34;100.00;101752.03;10436968;28;20053;-78
2024/02/17 06:16:11;;;;;;;11.60;7.55;;;;;;;14.55;100.00;101763.03;10425012;28;20511;-77
2024/02/17 06:21:33;;;;;;;23.60;17.27;;;;;;;14.73;100.00;101767.72;10442441;28;20052;-77
2024/02/17 06:26:56;;;;;;;14.60;10.20;;;;;;;14.51;100.00;101770.91;10436357;28;20041;-78
2024/02/17 06:32:20;;;;;;;23.20;18.27;;;;;;;14.22;100.00;101787.25;10463505;28;20049;-77
2024/02/17 06:37:42;;;;;;;16.95;10.88;;;;;;;14.31;100.00;101790.03;10436285;28;20075;-78
2024/02/17 06:43:05;;;;;;;22.23;16.58;;;;;;;14.43;100.00;101791.16;10435314;28;20041;-78
2024/02/17 06:48:29;;;;;;;18.77;11.98;;;;;;;14.17;100.00;101796.00;10449828;28;20056;-77
2024/02/17 06:53:51;;;;;;;18.38;14.15;;;;;;;14.08;100.00;101806.47;10435848;28;20049;-78
2024/02/17 06:59:14;;;;;;;25.25;22.55;;;;;;;14.14;100.00;101804.81;10473824;28;20190;-78
2024/02/17 07:04:38;;;;;;;33.35;29.45;;;;;;;14.50;100.00;101812.56;10437546;28;20127;-78
2024/02/17 07:10:03;;;;;;;19.90;12.43;;;;;;;14.83;100.00;101822.81;10454580;28;20072;-78
2024/02/17 07:15:26;;;;;;;11.48;9.23;;;;;;;15.15;100.00;101815.31;10439244;28;20070;-78
2024/02/17 07:20:49;;;;;;;11.88;8.48;;;;;;;15.48;100.00;101823.75;10478372;28;20052;-78
2024/02/17 07:26:12;;;;;;;17.65;12.07;;;;;;;15.82;100.00;101822.38;10466977;28;20053;-78
2024/02/17 07:31:39;;;;;;;12.60;7.55;;;;;;;16.24;100.00;101832.59;10453484;28;20454;-79
2024/02/17 07:37:03;;;;;;;10.85;6.20;;;;;;;16.40;100.00;101824.75;10488121;28;20052;-78
2024/02/17 07:42:28;;;;;;;10.57;8.20;;;;;;;16.49;100.00;101828.38;10452499;28;20053;-77
2024/02/17 07:47:50;;;;;;;11.32;6.85;;;;;;;16.50;100.00;101827.50;10446189;28;20064;-78
2024/02/17 07:53:15;;;;;;;12.20;9.30;;;;;;;16.66;100.00;101831.22;10445910;28;20075;-78
2024/02/17 07:58:37;;;;;;;12.80;6.32;;;;;;;16.95;100.00;101834.97;10472059;28;20044;-79
2024/02/17 08:04:00;;;;;;;7.18;6.03;;;;;;;17.32;100.00;101836.09;10445338;28;20056;-79
2024/02/17 08:09:24;;;;;;;10.15;6.20;;;;;;;17.43;100.00;101844.16;10432920;28;20044;-78
2024/02/17 08:14:46;;;;;;;9.30;5.22;;;;;;;17.21;100.00;101843.16;10439588;28;20064;-78
2024/02/17 08:20:10;;;;;;;18.67;9.00;;;;;;;17.30;100.00;101836.97;10456427;28;20037;-78
2024/02/17 08:25:33;;;;;;;9.82;5.70;;;;;;;17.25;100.00;101836.97;10455588;28;20070;-78
2024/02/17 08:30:56;;;;;;;14.23;7.40;;;;;;;17.30;100.00;101835.19;10455523;28;20045;-79
2024/02/17 08:36:19;;;;;;;12.10;6.68;;;;;;;17.16;100.00;101841.34;10455216;28;20053;-77
2024/02/17 08:41:43;;;;;;;13.20;6.82;;;;;;;17.13;100.00;101851.09;10455195;28;20045;-79
2024/02/17 08:47:06;;;;;;;12.88;6.85;;;;;;;17.28;100.00;101847.63;10436588;28;20057;-79
2024/02/17 08:52:29;;;;;;;12.93;8.55;;;;;;;17.48;100.00;101861.09;10452821;28;20041;-79
2024/02/17 08:57:52;;;;;;;12.48;7.88;;;;;;;17.20;100.00;101862.72;10435711;28;20053;-80
2024/02/17 09:03:15;;;;;;;13.68;7.82;;;;;;;16.79;100.00;101870.44;10464511;28;20049;-79
2024/02/17 09:08:38;;;;;;;13.25;7.93;;;;;;;16.55;100.00;101871.06;10453346;28;20384;-80
2024/02/17 09:14:02;;;;;;;51.55;25.23;;;;;;;16.95;100.00;101859.00;10465520;28;20075;-79
2024/02/17 09:19:25;;;;;;;14.90;9.60;;;;;;;16.86;100.00;101871.38;10467454;28;20525;-79
2024/02/17 09:24:47;;;;;;;18.90;10.57;;;;;;;16.88;100.00;101875.81;10452897;28;20130;-79
2024/02/17 09:30:12;;;;;;;13.90;8.55;;;;;;;17.24;100.00;101869.88;10482427;28;20504;-79
2024/02/17 09:35:34;;;;;;;14.65;8.35;;;;;;;16.93;100.00;101866.13;10467560;28;20047;-79
2024/02/17 09:40:57;;;;;;;14.35;9.10;;;;;;;16.31;100.00;101865.53;10440888;28;20048;-80
2024/02/17 09:46:26;;;;;;;13.70;7.10;;;;;;;16.69;100.00;101866.78;10454773;28;20049;-80
2024/02/17 09:51:49;;;;;;;8.75;6.18;;;;;;;17.57;100.00;101855.81;10427586;28;20080;-80
2024/02/17 09:57:12;;;;;;;7.13;5.13;;;;;;;17.95;100.00;101839.94;10448986;28;20045;-80
2024/02/17 10:02:36;;;;;;;11.95;7.20;;;;;;;17.46;100.00;101839.72;10439983;28;20503;-81
2024/02/17 10:07:59;;;;;;;7.35;4.25;;;;;;;17.51;100.00;101851.34;10453296;28;20539;-81
2024/02/17 10:13:22;;;;;;;7.05;4.07;;;;;;;17.78;100.00;101837.22;10481056;28;20075;-80
2024/02/17 10:18:48;;;;;;;10.15;4.53;;;;;;;17.88;100.00;101847.03;10464582;28;20049;-80
2024/02/17 10:24:10;;;;;;;6.25;3.90;;;;;;;18.28;100.00;101840.00;10466098;28;20053;-81
2024/02/17 10:29:33;;;;;;;7.80;3.97;;;;;;;18.64;100.00;101838.28;10466336;28;20049;-80
2024/02/17 10:34:58;;;;;;;9.52;4.15;;;;;;;19.07;100.00;101839.13;10451828;28;20041;-80
2024/02/17 10:40:22;;;;;;;8.48;3.50;;;;;;;18.84;100.00;101833.78;10478632;28;20479;-80
2024/02/17 10:45:44;;;;;;;6.88;4.53;;;;;;;18.18;100.00;101837.34;10435891;28;20041;-80
2024/02/17 10:51:08;;;;;;;9.23;4.90;;;;;;;18.24;100.00;101827.53;10433534;28;20049;-79
2024/02/17 10:56:32;;;;;;;10.05;4.88;;;;;;;18.23;100.00;101827.53;10462268;28;20566;-78
2024/02/17 11:01:59;;;;;;;9.35;4.90;;;;;;;18.35;100.00;101830.22;10440194;28;20049;-79
2024/02/17 11:07:23;;;;;;;8.60;4.50;;;;;;;18.82;100.00;101827.56;10425068;28;20049;-79
2024/02/17 11:12:50;;;;;;;8.20;5.80;;;;;;;19.21;98.99;101828.38;10446798;28;20045;-80
2024/02/17 11:18:13;;;;;;;9.23;5.70;;;;;;;19.36;95.85;101825.66;10446410;28;20146;-79
2024/02/17 11:23:39;;;;;;;9.70;5.13;;;;;;;19.07;96.50;101826.63;10412350;28;20108;-82
2024/02/17 11:29:06;;;;;;;12.82;8.32;;;;;;;19.58;93.64;101826.47;10456103;28;20052;-79
2024/02/17 11:34:29;;;;;;;10.63;4.60;;;;;;;19.52;91.63;101830.09;10460803;28;20045;-80
2024/02/17 11:39:53;;;;;;;10.15;5.22;;;;;;;19.57;94.69;101820.22;10460288;28;20041;-79
2024/02/17 11:45:15;;;;;;;8.40;4.10;;;;;;;19.49;92.87;101824.75;10440128;28;20048;-79
2024/02/17 11:50:40;;;;;;;10.25;5.30;;;;;;;19.33;93.63;101812.28;10413116;28;20065;-80
2024/02/17 11:56:15;;;;;;;7.68;5.20;;;;;;;19.15;94.73;101810.56;10421107;28;20049;-79
2024/02/17 12:01:37;;;;;;;7.80;4.22;;;;;;;18.77;96.97;101815.09;10460888;28;20560;-81
2024/02/17 12:07:01;;;;;;;10.93;5.63;;;;;;;18.04;100.00;101813.25;10448030;28;20486;-78
2024/02/17 12:12:26;;;;;;;9.18;4.28;;;;;;;17.94;100.00;101819.44;10474553;28;20512;-78
2024/02/17 12:17:48;;;;;;;5.85;4.25;;;;;;;17.60;100.00;101834.44;10475411;28;20099;-76
2024/02/17 12:23:11;;;;;;;3.97;2.70;;;;;;;17.99;100.00;101831.03;10429717;28;20136;-79
2024/02/17 12:28:35;;;;;;;6.72;5.25;;;;;;;18.36;100.00;101841.81;10447074;28;20374;-80
2024/02/17 12:33:58;;;;;;;8.57;4.95;;;;;;;18.77;100.00;101828.47;10447998;28;20049;-79
2024/02/17 12:39:25;;;;;;;7.00;3.63;;;;;;;18.78;99.32;101838.25;10444239;28;20059;-77
2024/02/17 12:44:53;;;;;;;7.75;3.80;;;;;;;18.44;100.00;101818.66;10490007;28;20049;-80
2024/02/17 12:50:17;;;;;;;9.43;4.20;;;;;;;18.00;100.00;101822.13;10411022;28;20087;-78
2024/02/17 12:55:40;;;;;;;8.13;4.47;;;;;;;17.53;100.00;101827.28;10432677;28;20053;-77
2024/02/17 13:01:06;;;;;;;7.60;3.67;;;;;;;17.13;100.00;101826.22;10440178;28;20049;-79
2024/02/17 13:06:29;;;;;;;7.13;4.50;;;;;;;17.02;100.00;101835.91;10415950;28;20037;-78
2024/02/17 13:11:51;;;;;;;5.82;3.95;;;;;;;17.06;100.00;101841.31;10436683;28;20115;-76
2024/02/17 13:17:15;;;;;;;8.52;5.38;;;;;;;17.01;100.00;101848.34;10448169;28;20045;-80
2024/02/17 13:22:38;;;;;;;9.18;3.03;;;;;;;17.09;100.00;101851.97;10469546;28;20376;-79
2024/02/17 13:28:00;;;;;;;8.48;5.15;;;;;;;16.83;100.00;101850.00;10440700;28;20390;-79
2024/02/17 13:33:24;;;;;;;6.20;3.75;;;;;;;16.66;100.00;101852.56;10443487;28;20442;-79
2024/02/17 13:38:46;;;;;;;5.93;3.67;;;;;;;16.49;100.00;101854.13;10458043;28;20048;-79
2024/02/17 13:44:09;;;;;;;6.28;4.68;;;;;;;16.40;100.00;101852.31;10495125;28;20048;-79
2024/02/17 13:49:33;;;;;;;5.25;3.42;;;;;;;16.53;100.00;101853.31;10487629;28;20056;-79
2024/02/17 13:54:55;;;;;;;6.60;3.97;;;;;;;16.52;100.00;101859.50;10438581;28;20053;-79
2024/02/17 14:00:19;;;;;;;9.05;5.25;;;;;;;16.28;100.00;101861.03;10427949;28;20037;-79
2024/02/17 14:05:45;;;;;;;6.95;5.55;;;;;;;16.25;100.00;101870.78;10453006;28;20060;-79
2024/02/17 14:11:09;;;;;;;21.10;18.85;;;;;;;16.30;100.00;101872.63;10451962;28;20049;-79
2024/02/17 14:16:31;;;;;;;10.07;7.50;;;;;;;16.10;100.00;101871.53;10437856;28;20064;-78
2024/02/17 14:21:55;;;;;;;14.80;8.40;;;;;;;15.88;100.00;101873.03;10450169;28;20045;-78
2024/02/17 14:27:18;;;;;;;12.20;5.90;;;;;;;15.91;100.00;101875.75;10429108;28;20056;-78
2024/02/17 14:32:43;;;;;;;18.67;9.90;;;;;;;15.80;100.00;101872.06;10437386;28;20051;-79
2024/02/17 14:38:07;;;;;;;13.98;6.40;;;;;;;15.64;100.00;101872.75;10462433;28;20041;-80
2024/02/17 14:43:30;;;;;;;16.13;12.35;;;;;;;15.51;100.00;101878.75;10403441;28;20054;-79
2024/02/17 14:48:53;;;;;;;20.92;18.70;;;;;;;15.41;100.00;101893.72;10452888;28;20148;-78
2024/02/17 14:54:17;;;;;;;21.25;16.42;;;;;;;15.45;100.00;101899.97;10448969;28;20546;-78
2024/02/17 14:59:42;;;;;;;29.15;26.08;;;;;;;15.44;100.00;101904.38;10474025;28;20047;-78
2024/02/17 15:05:06;;;;;;;17.85;13.30;;;;;;;15.38;100.00;101903.41;10431149;28;20509;-79
2024/02/17 15:10:30;;;;;;;11.90;8.93;;;;;;;15.30;100.00;101907.72;10418970;28;20045;-81
2024/02/17 15:15:53;;;;;;;18.50;15.63;;;;;;;15.04;100.00;101908.22;10425067;28;20045;-78
2024/02/17 15:21:15;;;;;;;11.40;10.23;;;;;;;14.82;100.00;101908.75;10432711;28;20065;-80
2024/02/17 15:26:39;;;;;;;11.13;7.55;;;;;;;14.81;100.00;101909.63;10473849;28;20045;-79
2024/02/17 15:32:02;;;;;;;8.23;5.68;;;;;;;14.75;100.00;101915.75;10447662;28;20098;-80
2024/02/17 15:37:24;;;;;;;6.65;5.82;;;;;;;14.69;100.00;101923.63;10450284;28;20059;-79
2024/02/17 15:42:49;;;;;;;5.90;4.63;;;;;;;14.31;100.00;101909.56;10465358;28;20064;-81
2024/02/17 15:48:11;;;;;;;9.52;5.80;;;;;;;13.56;100.00;101927.50;10433679;28;20049;-79
2024/02/17 15:53:35;;;;;;;11.23;8.80;;;;;;;13.36;100.00;101918.22;10464158;28;20395;-78
2024/02/17 15:59:00;;;;;;;10.80;9.65;;;;;;;13.33;100.00;101926.97;10472721;28;20479;-80
2024/02/17 16:04:23;;;;;;;16.20;14.40;;;;;;;13.51;100.00;101913.25;10423148;28;20044;-79
2024/02/17 16:09:46;;;;;;;18.23;15.73;;;;;;;13.77;100.00;101906.75;10453247;28;20050;-79
2024/02/17 16:15:12;;;;;;;15.40;10.35;;;;;;;13.88;100.00;101907.84;10429211;28;20053;-82
2024/02/17 16:20:36;;;;;;;30.00;20.30;;;;;;;13.63;100.00;101928.53;10434690;28;20049;-80
2024/02/17 16:25:58;;;;;;;46.58;37.47;;;;;;;13.38;100.00;101917.38;10460022;28;20063;-85
2024/02/17 16:31:22;;;;;;;11.85;7.82;;;;;;;13.26;100.00;101922.38;10443398;28;20048;-80
2024/02/17 16:36:45;;;;;;;10.65;5.47;;;;;;;13.07;100.00;101942.25;10459059;28;20045;-78
2024/02/17 16:42:07;;;;;;;11.20;6.85;;;;;;;13.01;100.00;101951.78;10454195;28;20037;-78
2024/02/17 16:47:31;;;;;;;13.70;9.50;;;;;;;13.07;100.00;101941.34;10438514;28;20048;-79
2024/02/17 16:52:54;;;;;;;11.63;9.10;;;;;;;13.11;100.00;101948.53;10480830;28;20072;-78
2024/02/17 16:58:16;;;;;;;17.23;10.40;;;;;;;13.11;100.00;101952.06;10437595;28;20084;-77
2024/02/17 17:03:40;;;;;;;19.75;14.93;;;;;;;13.13;100.00;101953.03;10433478;28;20380;-77
2024/02/17 17:09:03;;;;;;;28.00;21.05;;;;;;;13.25;100.00;101962.16;10455673;28;20072;-78
2024/02/17 17:14:27;;;;;;;31.30;21.35;;;;;;;13.23;100.00;101963.88;10447391;28;20053;-78
2024/02/17 17:19:51;;;;;;;47.30;36.88;;;;;;;13.05;100.00;101967.84;10450260;28;20055;-79
2024/02/17 17:25:13;;;;;;;35.70;29.38;;;;;;;13.11;100.00;101973.28;10452816;28;20052;-82
2024/02/17 17:30:36;;;;;;;34.80;24.63;;;;;;;13.14;100.00;101977.78;10478173;28;20069;-81
2024/02/17 17:36:03;;;;;;;28.25;20.15;;;;;;;13.06;100.00;101969.59;10467520;28;20817;-80
2024/02/17 17:41:25;;;;;;;31.92;21.08;;;;;;;12.97;100.00;101966.75;10459307;28;20049;-78
2024/02/17 17:46:49;;;;;;;20.30;12.45;;;;;;;12.91;100.00;101963.94;10433801;28;20041;-78
2024/02/17 17:52:13;;;;;;;19.85;12.98;;;;;;;12.93;100.00;101967.50;10446547;28;20064;-78
2024/02/17 17:57:35;;;;;;;23.58;12.98;;;;;;;12.97;100.00;101955.25;10450882;28;20094;-78
2024/02/17 18:02:58;;;;;;;33.65;20.90;;;;;;;12.95;100.00;101975.50;10468536;28;20052;-78
2024/02/17 18:08:25;;;;;;;37.10;24.05;;;;;;;12.94;100.00;101971.94;10450905;28;20052;-78
2024/02/17 18:13:48;;;;;;;96.47;44.45;;;;;;;12.96;100.00;101975.53;10458103;28;20076;-77
2024/02/17 18:19:12;;;;;;;53.13;24.98;;;;;;;13.06;100.00;101993.47;10439509;28;20044;-78
2024/02/17 18:24:36;;;;;;;41.88;29.30;;;;;;;13.25;100.00;101996.63;10435939;28;20134;-78
2024/02/17 18:29:58;;;;;;;33.50;24.00;;;;;;;13.14;100.00;101996.34;10434093;28;20402;-79
2024/02/17 18:35:20;;;;;;;38.40;30.27;;;;;;;13.07;100.00;101997.00;10451127;28;20059;-78
2024/02/17 18:40:44;;;;;;;38.83;29.40;;;;;;;13.10;100.00;102011.25;10435877;28;20048;-79
2024/02/17 18:46:07;;;;;;;50.33;44.35;;;;;;;13.12;100.00;102008.66;10443461;28;20048;-75
2024/02/17 18:51:30;;;;;;;171.57;90.97;;;;;;;13.12;100.00;102016.59;10476094;28;20388;-76
2024/02/17 18:56:53;;;;;;;36.17;26.45;;;;;;;13.09;100.00;102024.47;10426438;28;20148;-76
2024/02/17 19:02:16;;;;;;;27.85;24.35;;;;;;;13.16;100.00;102003.50;10437852;28;20696;-77
2024/02/17 19:07:40;;;;;;;25.95;15.73;;;;;;;13.13;100.00;102006.06;10474482;28;20049;-76
2024/02/17 19:13:06;;;;;;;35.90;29.40;;;;;;;13.19;100.00;102013.28;10433980;28;20045;-78
2024/02/17 19:18:28;;;;;;;26.92;20.83;;;;;;;13.15;100.00;102014.06;10428545;28;20056;-76
2024/02/17 19:23:51;;;;;;;24.13;14.40;;;;;;;13.22;100.00;102005.41;10433993;28;20424;-78
2024/02/17 19:29:15;;;;;;;33.53;22.67;;;;;;;13.26;100.00;101999.28;10433608;28;20102;-77
2024/02/17 19:34:38;;;;;;;50.97;33.17;;;;;;;13.33;100.00;102009.19;10448017;28;20049;-77
2024/02/17 19:40:00;;;;;;;19.33;14.25;;;;;;;13.22;100.00;102021.31;10474550;28;20567;-77
2024/02/17 19:45:24;;;;;;;24.50;16.60;;;;;;;13.20;100.00;102023.00;10433095;28;20048;-76
2024/02/17 19:50:47;;;;;;;77.70;36.53;;;;;;;13.23;100.00;102027.50;10432540;28;20049;-77
2024/02/17 19:56:09;;;;;;;20.95;13.10;;;;;;;13.26;100.00;102028.47;10433237;28;20045;-77
2024/02/17 20:01:33;;;;;;;24.88;16.77;;;;;;;13.35;100.00;102031.34;10473890;28;20041;-77
2024/02/17 20:06:56;;;;;;;43.97;35.75;;;;;;;13.41;100.00;102034.16;10434704;28;20103;-78
2024/02/17 20:12:19;;;;;;;28.08;16.40;;;;;;;13.53;100.00;102047.72;10440107;28;20079;-77
2024/02/17 20:17:43;;;;;;;27.75;15.95;;;;;;;13.40;100.00;102037.66;10439596;28;20060;-77
2024/02/17 20:23:05;;;;;;;19.38;14.40;;;;;;;13.47;100.00;102049.31;10454538;28;20064;-77
2024/02/17 20:28:28;;;;;;;21.27;15.23;;;;;;;13.44;100.00;102041.31;10477638;28;20041;-75
2024/02/17 20:33:52;;;;;;;24.90;16.75;;;;;;;13.48;100.00;102035.19;10479698;28;20057;-75
2024/02/17 20:39:14;;;;;;;31.55;23.42;;;;;;;13.52;100.00;102037.94;10438741;28;20045;-75
2024/02/17 20:44:37;;;;;;;16.88;11.07;;;;;;;13.57;100.00;102025.72;10472808;28;20049;-75
2024/02/17 20:50:03;;;;;;;21.17;15.20;;;;;;;13.63;100.00;102032.03;10436701;28;20045;-76
2024/02/17 20:55:25;;;;;;;16.52;10.63;;;;;;;13.71;100.00;102043.72;10451505;28;20045;-75
2024/02/17 21:00:48;;;;;;;23.77;14.65;;;;;;;13.76;100.00;102040.31;10437531;28;20577;-75
2024/02/17 21:06:12;;;;;;;17.85;10.68;;;;;;;13.88;100.00;102037.94;10439452;28;20406;-75
2024/02/17 21:11:35;;;;;;;15.57;11.02;;;;;;;13.82;100.00;102036.91;10436742;28;20486;-75
2024/02/17 21:16:57;;;;;;;14.38;10.20;;;;;;;13.85;100.00;102034.28;10449751;28;20037;-75
2024/02/17 21:22:21;;;;;;;16.38;11.43;;;;;;;13.99;100.00;102035.50;10479303;28;20084;-76
2024/02/17 21:27:44;;;;;;;19.33;12.30;;;;;;;14.03;100.00;102036.50;10475925;28;20053;-75
2024/02/17 21:33:07;;;;;;;21.20;12.98;;;;;;;14.07;100.00;102035.69;10458854;28;20049;-75
2024/02/17 21:38:31;;;;;;;19.63;12.75;;;;;;;14.10;100.00;102026.03;10447503;28;20049;-76
2024/02/17 21:43:54;;;;;;;28.90;18.23;;;;;;;13.99;100.00;102038.16;10476797;28;20045;-75
2024/02/17 21:49:16;;;;;;;23.05;14.20;;;;;;;14.00;100.00;102052.34;10463887;28;20047;-75
2024/02/17 21:54:40;;;;;;;17.63;11.32;;;;;;;13.98;100.00;102051.44;10436224;28;20057;-76
2024/02/17 22:00:04;;;;;;;24.60;17.90;;;;;;;14.07;100.00;102052.50;10478175;28;20049;-75
2024/02/17 22:05:34;;;;;;;20.83;12.60;;;;;;;14.13;100.00;102049.97;10437709;28;20053;-75
2024/02/17 22:10:58;;;;;;;14.73;10.43;;;;;;;14.07;100.00;102051.59;10446498;28;20072;-75
2024/02/17 22:16:20;;;;;;;14.98;10.10;;;;;;;14.14;100.00;102053.53;10431503;28;20049;-76
2024/02/17 22:21:43;;;;;;;16.38;10.57;;;;;;;14.08;100.00;102049.00;10465520;28;20049;-77
2024/02/17 22:27:09;;;;;;;16.80;10.57;;;;;;;14.13;100.00;102033.16;10437242;28;20490;-75
2024/02/17 22:32:31;;;;;;;20.65;10.48;;;;;;;14.13;100.00;102044.66;10446391;28;20513;-76
2024/02/17 22:37:54;;;;;;;15.18;10.90;;;;;;;14.13;100.00;102043.78;10464015;28;20445;-76
2024/02/17 22:43:18;;;;;;;18.08;10.15;;;;;;;14.17;100.00;102035.94;10463771;28;20041;-76
2024/02/17 22:48:41;;;;;;;12.98;9.23;;;;;;;14.13;100.00;102031.41;10408836;28;20057;-76
2024/02/17 22:54:03;;;;;;;13.68;8.52;;;;;;;14.23;100.00;102027.19;10471714;28;20044;-76
2024/02/17 22:59:28;;;;;;;14.88;9.52;;;;;;;14.23;100.00;102012.16;10447554;28;20110;-75
2024/02/17 23:04:50;;;;;;;15.50;9.30;;;;;;;14.13;100.00;102018.13;10476292;28;20095;-75
2024/02/17 23:10:13;;;;;;;13.68;8.98;;;;;;;14.09;100.00;102023.34;10430971;28;20057;-75
2024/02/17 23:15:37;;;;;;;17.55;10.32;;;;;;;14.15;100.00;102010.19;10452131;28;20501;-76
2024/02/17 23:21:00;;;;;;;12.60;8.55;;;;;;;14.17;100.00;102020.00;10444310;28;20521;-76
2024/02/17 23:26:22;;;;;;;16.42;8.30;;;;;;;14.21;100.00;102020.94;10447608;28;20521;-76
2024/02/17 23:31:46;;;;;;;14.65;8.68;;;;;;;14.19;100.00;102022.66;10433580;28;20056;-77
2024/02/17 23:37:09;;;;;;;16.52;8.95;;;;;;;14.13;100.00;102028.75;10411503;28;20052;-75
2024/02/17 23:42:32;;;;;;;17.30;9.00;;;;;;;14.22;100.00;102031.59;10446201;28;20406;-76
2024/02/17 23:47:56;;;;;;;12.07;7.68;;;;;;;14.24;100.00;102034.28;10435145;28;20045;-76
2024/02/17 23:53:19;;;;;;;18.10;11.38;;;;;;;13.89;100.00;102022.91;10448043;28;20075;-76
2024/02/17 23:58:41;;;;;;;17.75;10.30;;;;;;;13.61;100.00;102031.97;10433776;28;20045;-75
